createdAt,value
2017-12-14T00:00:45.305Z,2.13
2017-12-14T00:03:13.569Z,1.50
2017-12-14T00:05:41.860Z,1.87
2017-12-14T00:08:11.393Z,2.10
2017-12-14T00:10:38.893Z,1.43
2017-12-14T00:13:07.918Z,1.63
2017-12-14T00:15:36.394Z,1.70
2017-12-14T00:18:04.656Z,1.50
2017-12-14T00:20:32.942Z,1.70
2017-12-14T00:23:01.205Z,2.53
2017-12-14T00:25:29.485Z,1.60
2017-12-14T00:27:57.765Z,1.73
2017-12-14T00:30:26.028Z,1.57
2017-12-14T00:32:54.282Z,1.60
2017-12-14T00:35:23.756Z,1.30
2017-12-14T00:37:51.256Z,1.50
2017-12-14T00:40:21.516Z,1.37
2017-12-14T00:42:49.017Z,1.30
2017-12-14T00:45:16.530Z,1.40
2017-12-14T00:47:44.037Z,1.40
2017-12-14T00:50:11.529Z,1.53
2017-12-14T00:52:39.053Z,1.77
2017-12-14T00:55:06.545Z,1.30
2017-12-14T00:57:34.038Z,1.80
2017-12-14T01:00:01.549Z,1.43
2017-12-14T01:02:29.832Z,1.20
2017-12-14T01:04:57.326Z,1.67
2017-12-14T01:07:24.860Z,1.20
2017-12-14T01:09:52.365Z,1.60
2017-12-14T01:12:19.992Z,1.60
2017-12-14T01:14:47.574Z,1.20
2017-12-14T01:17:15.329Z,1.50
2017-12-14T01:19:43.643Z,1.20
2017-12-14T01:22:12.262Z,2.53
2017-12-14T01:24:40.152Z,1.23
2017-12-14T01:27:07.992Z,1.00
2017-12-14T01:29:37.905Z,1.30
2017-12-14T01:32:05.771Z,1.33
2017-12-14T01:34:34.558Z,1.40
2017-12-14T01:37:02.229Z,1.30
2017-12-14T01:39:29.981Z,1.53
2017-12-14T01:41:57.743Z,1.53
2017-12-14T01:44:25.281Z,1.40
2017-12-14T01:46:53.543Z,1.10
2017-12-14T01:49:21.817Z,1.30
2017-12-14T01:51:50.073Z,1.23
2017-12-14T01:54:18.330Z,1.90
2017-12-14T01:56:45.846Z,1.50
2017-12-14T01:59:13.341Z,1.30
2017-12-14T02:01:40.832Z,1.43
2017-12-14T02:04:09.113Z,1.50
2017-12-14T02:06:37.369Z,1.40
2017-12-14T02:09:05.658Z,1.43
2017-12-14T02:11:33.917Z,1.70
2017-12-14T02:14:02.177Z,1.80
2017-12-14T02:16:29.689Z,1.47
2017-12-14T02:18:58.162Z,1.50
2017-12-14T02:21:25.654Z,1.57
2017-12-14T02:23:53.165Z,2.07
2017-12-14T02:26:21.422Z,1.67
2017-12-14T02:28:49.677Z,1.50
2017-12-14T02:31:18.094Z,1.53
2017-12-14T02:33:46.357Z,1.70
2017-12-14T02:36:13.870Z,1.60
2017-12-14T02:38:41.437Z,1.73
2017-12-14T02:41:09.661Z,1.80
2017-12-14T02:43:38.879Z,1.80
2017-12-14T02:46:06.369Z,1.80
2017-12-14T02:48:33.886Z,1.67
2017-12-14T02:51:01.393Z,1.50
2017-12-14T02:53:30.867Z,1.37
2017-12-14T02:55:58.381Z,1.50
2017-12-14T02:58:26.636Z,1.67
2017-12-14T03:00:55.657Z,1.73
2017-12-14T03:03:23.917Z,1.73
2017-12-14T03:05:52.173Z,1.10
2017-12-14T03:08:21.627Z,1.13
2017-12-14T03:10:49.121Z,1.23
2017-12-14T03:13:16.643Z,1.60
2017-12-14T03:15:45.081Z,1.60
2017-12-14T03:18:12.569Z,1.50
2017-12-14T03:20:40.077Z,1.50
2017-12-14T03:23:07.572Z,1.57
2017-12-14T03:25:35.100Z,1.67
2017-12-14T03:28:04.101Z,1.50
2017-12-14T03:30:33.557Z,1.37
2017-12-14T03:33:01.045Z,1.80
2017-12-14T03:35:28.561Z,1.53
2017-12-14T03:37:56.053Z,1.40
2017-12-14T03:40:23.569Z,1.40
2017-12-14T03:42:51.065Z,1.43
2017-12-14T03:45:18.557Z,1.40
2017-12-14T03:47:48.789Z,2.20
2017-12-14T03:50:17.050Z,1.77
2017-12-14T03:52:45.313Z,1.40
2017-12-14T03:55:13.597Z,1.87
2017-12-14T03:57:41.850Z,1.67
2017-12-14T04:00:09.342Z,1.63
2017-12-14T04:02:37.617Z,1.53
2017-12-14T04:05:05.873Z,1.67
2017-12-14T04:07:34.171Z,1.47
2017-12-14T04:10:01.906Z,1.53
2017-12-14T04:12:29.417Z,1.53
2017-12-14T04:14:56.900Z,1.27
2017-12-14T04:17:24.414Z,1.30
2017-12-14T04:19:51.914Z,1.63
2017-12-14T04:22:19.406Z,1.30
2017-12-14T04:24:47.683Z,1.57
2017-12-14T04:27:15.182Z,1.57
2017-12-14T04:29:42.693Z,1.70
2017-12-14T04:32:10.963Z,1.23
2017-12-14T04:34:39.281Z,1.30
2017-12-14T04:37:06.773Z,1.43
2017-12-14T04:39:34.285Z,2.00
2017-12-14T04:42:01.772Z,1.60
2017-12-14T04:44:31.234Z,1.43
2017-12-14T04:46:58.736Z,1.70
2017-12-14T04:49:26.255Z,1.60
2017-12-14T04:51:53.758Z,1.57
2017-12-14T04:54:21.258Z,1.50
2017-12-14T04:56:48.773Z,1.87
2017-12-14T04:59:17.217Z,1.30
2017-12-14T05:01:45.501Z,1.60
2017-12-14T05:04:12.989Z,1.77
2017-12-14T05:06:42.009Z,1.80
2017-12-14T05:09:10.273Z,1.90
2017-12-14T05:11:40.534Z,1.40
2017-12-14T05:14:08.025Z,1.40
2017-12-14T05:16:35.546Z,2.00
2017-12-14T05:19:03.042Z,1.70
2017-12-14T05:21:31.326Z,1.57
2017-12-14T05:23:59.584Z,1.87
2017-12-14T05:26:27.078Z,1.73
2017-12-14T05:28:55.358Z,1.20
2017-12-14T05:31:23.616Z,1.40
2017-12-14T05:33:51.898Z,1.43
2017-12-14T05:36:20.155Z,1.30
2017-12-14T05:38:51.125Z,1.40
2017-12-14T05:41:18.617Z,1.60
2017-12-14T05:43:46.132Z,1.33
2017-12-14T05:46:14.395Z,1.57
2017-12-14T05:48:42.681Z,1.77
2017-12-14T05:51:10.941Z,1.40
2017-12-14T05:53:39.197Z,1.30
2017-12-14T05:56:06.704Z,1.37
2017-12-14T05:58:34.196Z,2.07
2017-12-14T06:01:01.705Z,1.97
2017-12-14T06:03:29.969Z,1.40
2017-12-14T06:05:58.241Z,1.57
2017-12-14T06:08:26.502Z,1.60
2017-12-14T06:10:54.790Z,1.37
2017-12-14T06:13:23.054Z,1.33
2017-12-14T06:15:50.565Z,1.30
2017-12-14T06:18:18.057Z,1.83
2017-12-14T06:20:45.577Z,1.87
2017-12-14T06:23:13.065Z,1.50
2017-12-14T06:25:40.553Z,1.40
2017-12-14T06:28:08.834Z,1.10
2017-12-14T06:30:37.085Z,1.80
2017-12-14T06:33:05.362Z,2.30
2017-12-14T06:35:33.628Z,1.63
2017-12-14T06:38:01.922Z,1.43
2017-12-14T06:40:30.177Z,1.60
2017-12-14T06:42:59.209Z,1.90
2017-12-14T06:45:26.700Z,1.60
2017-12-14T06:47:54.216Z,1.93
2017-12-14T06:50:22.477Z,2.00
2017-12-14T06:52:50.765Z,1.77
2017-12-14T06:55:19.020Z,2.20
2017-12-14T06:57:47.277Z,1.40
2017-12-14T07:00:14.789Z,1.90
2017-12-14T07:02:42.281Z,1.90
2017-12-14T07:05:09.796Z,1.90
2017-12-14T07:07:37.291Z,1.83
2017-12-14T07:10:04.868Z,1.50
2017-12-14T07:12:33.610Z,1.90
2017-12-14T07:15:02.499Z,1.57
2017-12-14T07:17:30.535Z,1.80
2017-12-14T07:19:58.434Z,1.30
2017-12-14T07:22:27.426Z,1.53
2017-12-14T07:24:55.394Z,1.57
2017-12-14T07:27:23.361Z,1.57
2017-12-14T07:29:52.455Z,1.53
2017-12-14T07:32:21.652Z,26.07
2017-12-14T07:34:49.620Z,104.73
2017-12-14T07:37:17.796Z,28.13
2017-12-14T07:39:45.764Z,53.70
2017-12-14T07:45:25.113Z,32.87
2017-12-14T07:48:00.821Z,53.23
2017-12-14T07:50:29.548Z,75.87
2017-12-14T07:52:57.095Z,35.50
2017-12-14T07:55:24.597Z,30.07
2017-12-14T07:57:52.118Z,28.90
2017-12-14T08:00:20.585Z,26.93
2017-12-14T08:02:48.108Z,37.07
2017-12-14T08:05:15.631Z,26.00
2017-12-14T08:07:43.133Z,25.83
2017-12-14T08:10:11.451Z,25.20
2017-12-14T08:12:39.005Z,22.97
2017-12-14T08:15:06.502Z,21.90
2017-12-14T08:17:34.014Z,19.70
2017-12-14T08:20:03.515Z,19.77
2017-12-14T08:22:31.013Z,19.10
2017-12-14T08:24:58.533Z,18.10
2017-12-14T08:27:26.058Z,18.40
2017-12-14T08:29:54.325Z,15.63
2017-12-14T08:32:21.823Z,14.90
2017-12-14T08:34:49.341Z,14.50
2017-12-14T08:37:16.841Z,14.67
2017-12-14T08:39:44.361Z,12.97
2017-12-14T08:42:12.626Z,13.60
2017-12-14T08:44:40.168Z,12.73
2017-12-14T08:47:07.665Z,13.53
2017-12-14T08:49:35.933Z,12.47
2017-12-14T08:52:04.217Z,11.97
2017-12-14T08:54:31.734Z,11.33
2017-12-14T08:56:59.253Z,12.60
2017-12-14T08:59:26.756Z,11.50
2017-12-14T09:01:54.296Z,9.30
2017-12-14T09:04:21.796Z,9.77
2017-12-14T09:06:50.066Z,10.40
2017-12-14T09:09:18.358Z,9.37
2017-12-14T09:11:45.856Z,9.47
2017-12-14T09:14:13.382Z,8.80
2017-12-14T09:16:41.841Z,8.63
2017-12-14T09:19:12.073Z,8.60
2017-12-14T09:21:39.578Z,7.60
2017-12-14T09:24:07.855Z,8.27
2017-12-14T09:26:35.371Z,8.47
2017-12-14T09:29:02.872Z,8.20
2017-12-14T09:31:30.396Z,7.83
2017-12-14T09:33:57.889Z,7.40
2017-12-14T09:36:26.181Z,7.30
2017-12-14T09:38:54.445Z,7.27
2017-12-14T09:41:22.705Z,6.20
2017-12-14T09:43:50.219Z,7.53
2017-12-14T09:46:17.717Z,6.20
2017-12-14T09:48:45.234Z,5.67
2017-12-14T09:51:12.758Z,6.53
2017-12-14T09:53:41.050Z,6.73
2017-12-14T09:56:09.309Z,5.70
2017-12-14T09:58:37.585Z,6.07
2017-12-14T10:01:05.876Z,5.67
2017-12-14T10:03:34.142Z,5.50
2017-12-14T10:06:02.429Z,5.57
2017-12-14T10:08:29.921Z,6.10
2017-12-14T10:10:57.417Z,5.03
2017-12-14T10:13:24.934Z,5.43
2017-12-14T10:15:52.433Z,4.60
2017-12-14T10:18:19.953Z,5.63
2017-12-14T10:20:48.377Z,4.50
2017-12-14T10:23:17.094Z,4.67
2017-12-14T10:25:44.609Z,5.27
2017-12-14T10:28:12.873Z,4.80
2017-12-14T10:30:42.317Z,4.47
2017-12-14T10:33:09.805Z,4.87
2017-12-14T10:35:37.314Z,4.13
2017-12-14T10:38:05.626Z,4.83
2017-12-14T10:40:33.117Z,4.00
2017-12-14T10:43:00.631Z,3.47
2017-12-14T10:45:28.133Z,3.87
2017-12-14T10:47:55.654Z,4.70
2017-12-14T10:50:23.146Z,3.97
2017-12-14T10:52:52.147Z,3.57
2017-12-14T10:55:20.429Z,3.87
2017-12-14T10:57:47.915Z,2.97
2017-12-14T11:00:15.437Z,4.00
2017-12-14T11:02:43.693Z,3.57
2017-12-14T11:05:14.674Z,3.87
2017-12-14T11:07:42.929Z,3.50
2017-12-14T11:10:10.422Z,4.40
2017-12-14T11:12:39.886Z,3.30
2017-12-14T11:15:07.410Z,4.00
2017-12-14T11:17:34.946Z,4.27
2017-12-14T11:20:02.449Z,3.50
2017-12-14T11:22:31.701Z,2.80
2017-12-14T11:24:59.195Z,3.60
2017-12-14T11:27:26.687Z,3.37
2017-12-14T11:29:54.997Z,3.50
2017-12-14T11:32:22.489Z,3.10
2017-12-14T11:34:51.945Z,3.57
2017-12-14T11:37:19.433Z,3.00
2017-12-14T11:39:46.921Z,3.40
2017-12-14T11:42:15.214Z,2.70
2017-12-14T11:44:43.651Z,2.83
2017-12-14T11:47:11.174Z,2.80
2017-12-14T11:49:38.669Z,2.53
2017-12-14T11:52:07.096Z,2.90
2017-12-14T11:54:34.613Z,3.03
2017-12-14T11:57:03.617Z,3.43
2017-12-14T11:59:31.910Z,3.23
2017-12-14T12:02:01.132Z,2.80
2017-12-14T12:04:28.621Z,2.80
2017-12-14T12:06:56.141Z,2.80
2017-12-14T12:09:23.637Z,2.90
2017-12-14T12:11:56.741Z,2.60
2017-12-14T12:14:24.238Z,2.87
2017-12-14T12:16:51.733Z,2.53
2017-12-14T12:19:19.250Z,2.93
2017-12-14T12:21:46.746Z,3.20
2017-12-14T12:24:14.261Z,2.70
2017-12-14T12:26:41.762Z,3.13
2017-12-14T12:29:09.289Z,2.27
2017-12-14T12:31:36.783Z,3.30
2017-12-14T12:34:04.284Z,2.30
2017-12-14T12:36:31.842Z,2.27
2017-12-14T12:38:59.337Z,2.13
2017-12-14T12:41:26.865Z,3.43
2017-12-14T12:43:54.362Z,2.63
2017-12-14T12:46:23.849Z,3.00
2017-12-14T12:48:51.341Z,2.73
2017-12-14T12:51:19.613Z,2.60
2017-12-14T12:53:47.129Z,2.50
2017-12-14T12:56:14.649Z,2.63
2017-12-14T12:58:42.925Z,2.50
2017-12-14T13:01:11.178Z,2.40
2017-12-14T13:03:39.465Z,2.13
2017-12-14T13:06:07.722Z,2.43
2017-12-14T13:08:35.213Z,2.53
2017-12-14T13:11:02.757Z,2.40
2017-12-14T13:13:31.008Z,2.00
2017-12-14T13:16:00.028Z,2.47
2017-12-14T13:18:28.281Z,2.50
2017-12-14T13:20:56.540Z,2.13
2017-12-14T13:23:24.063Z,2.60
2017-12-14T13:25:51.553Z,2.47
2017-12-14T13:28:19.065Z,1.87
2017-12-14T13:30:46.554Z,1.93
2017-12-14T13:33:14.045Z,2.73
2017-12-14T13:35:44.288Z,2.03
2017-12-14T13:38:12.549Z,2.40
2017-12-14T13:40:40.874Z,2.03
2017-12-14T13:43:08.365Z,2.30
2017-12-14T13:45:35.855Z,2.23
2017-12-14T13:48:05.316Z,1.80
2017-12-14T13:50:32.813Z,1.93
2017-12-14T13:53:00.329Z,2.37
2017-12-14T13:55:27.833Z,2.80
2017-12-14T13:57:55.325Z,1.77
2017-12-14T14:00:22.843Z,2.03
2017-12-14T14:02:50.350Z,2.33
2017-12-14T14:05:17.870Z,2.00
2017-12-14T14:07:45.372Z,2.50
2017-12-14T14:10:12.897Z,1.80
2017-12-14T14:12:41.329Z,1.60
2017-12-14T14:15:10.550Z,2.17
2017-12-14T14:17:38.061Z,1.90
2017-12-14T14:20:05.548Z,1.80
2017-12-14T14:22:33.833Z,2.30
2017-12-14T14:25:01.324Z,2.20
2017-12-14T14:27:28.841Z,3.00
2017-12-14T14:29:58.091Z,2.73
2017-12-14T14:32:25.580Z,2.00
2017-12-14T14:34:53.089Z,1.67
2017-12-14T14:37:20.581Z,2.03
2017-12-14T14:39:48.093Z,2.20
2017-12-14T14:42:15.598Z,2.63
2017-12-14T14:44:43.084Z,2.20
2017-12-14T14:47:11.365Z,2.73
2017-12-14T14:49:38.861Z,2.07
2017-12-14T14:52:06.369Z,1.60
2017-12-14T14:54:34.627Z,2.17
2017-12-14T14:57:02.150Z,1.97
2017-12-14T14:59:29.646Z,2.63
2017-12-14T15:01:57.905Z,2.20
2017-12-14T15:04:27.161Z,1.77
2017-12-14T15:06:54.650Z,1.50
2017-12-14T15:09:22.946Z,2.20
2017-12-14T15:11:51.202Z,1.97
2017-12-14T15:14:18.693Z,2.00
2017-12-14T15:16:46.974Z,2.07
2017-12-14T15:19:14.474Z,1.43
2017-12-14T15:21:41.989Z,1.77
2017-12-14T15:24:09.493Z,2.13
2017-12-14T15:26:37.020Z,1.70
2017-12-14T15:29:04.537Z,1.43
2017-12-14T15:31:32.801Z,1.87
2017-12-14T15:34:01.086Z,1.87
2017-12-14T15:36:28.589Z,1.80
2017-12-14T15:38:56.117Z,1.63
2017-12-14T15:41:24.372Z,1.60
2017-12-14T15:43:52.631Z,1.90
2017-12-14T15:46:20.151Z,1.37
2017-12-14T15:48:47.642Z,1.90
2017-12-14T15:51:15.157Z,1.50
2017-12-14T15:53:42.649Z,1.73
2017-12-14T15:56:10.142Z,1.90
2017-12-14T15:58:38.430Z,1.93
2017-12-14T16:01:05.927Z,1.67
2017-12-14T16:03:33.465Z,2.00
2017-12-14T16:06:00.970Z,1.67
2017-12-14T16:08:30.430Z,1.67
2017-12-14T16:10:57.921Z,1.90
2017-12-14T16:13:25.412Z,1.83
2017-12-14T16:15:55.661Z,2.03
2017-12-14T16:18:23.162Z,2.27
2017-12-14T16:20:54.141Z,1.37
2017-12-14T16:23:21.638Z,1.90
2017-12-14T16:25:51.101Z,1.70
2017-12-14T16:28:18.613Z,1.70
2017-12-14T16:30:46.880Z,1.77
2017-12-14T16:33:16.365Z,1.77
2017-12-14T16:35:43.854Z,1.67
2017-12-14T16:38:12.141Z,2.27
2017-12-14T16:40:40.405Z,1.70
2017-12-14T16:43:08.665Z,1.83
2017-12-14T16:45:38.126Z,1.73
2017-12-14T16:48:05.616Z,2.07
2017-12-14T16:50:33.139Z,2.17
2017-12-14T16:53:01.578Z,1.80
2017-12-14T16:55:29.074Z,1.47
2017-12-14T16:57:56.613Z,1.77
2017-12-14T17:00:25.812Z,2.30
2017-12-14T17:02:54.069Z,1.73
2017-12-14T17:05:22.353Z,1.50
2017-12-14T17:07:50.617Z,1.40
2017-12-14T17:10:18.165Z,1.60
2017-12-14T17:12:46.429Z,2.10
2017-12-14T17:15:13.947Z,1.60
2017-12-14T17:17:41.465Z,1.73
2017-12-14T17:20:09.742Z,1.80
2017-12-14T17:22:38.025Z,1.50
2017-12-14T17:25:06.309Z,1.67
2017-12-14T17:27:34.565Z,1.70
2017-12-14T17:30:02.845Z,1.33
2017-12-14T17:32:31.106Z,1.80
2017-12-14T17:34:59.393Z,1.43
2017-12-14T17:37:27.648Z,1.67
2017-12-14T17:39:55.162Z,1.83
2017-12-14T17:42:22.658Z,1.70
2017-12-14T17:44:52.610Z,1.70
2017-12-14T17:47:20.888Z,1.83
2017-12-14T17:49:48.398Z,1.90
2017-12-14T17:52:15.918Z,1.70
2017-12-14T17:54:43.409Z,1.53
2017-12-14T17:57:10.909Z,1.30
2017-12-14T17:59:39.193Z,1.93
2017-12-14T18:02:06.685Z,1.60
2017-12-14T18:04:34.201Z,1.80
2017-12-14T18:07:02.457Z,1.53
2017-12-14T18:09:30.717Z,1.40
2017-12-14T18:11:58.232Z,2.27
2017-12-14T18:14:25.721Z,1.77
2017-12-14T18:16:53.238Z,1.63
2017-12-14T18:19:20.737Z,1.63
2017-12-14T18:21:48.237Z,1.50
2017-12-14T18:24:15.758Z,1.60
2017-12-14T18:26:43.251Z,1.93
2017-12-14T18:29:10.770Z,1.30
2017-12-14T18:31:39.069Z,1.80
2017-12-14T18:34:07.332Z,1.87
2017-12-14T18:36:35.614Z,1.83
2017-12-14T18:39:03.893Z,1.93
2017-12-14T18:41:32.165Z,1.87
2017-12-14T18:44:00.421Z,1.73
2017-12-14T18:46:27.940Z,1.40
2017-12-14T18:48:55.429Z,2.30
2017-12-14T18:51:23.705Z,2.30
2017-12-14T18:53:51.229Z,1.40
2017-12-14T18:56:18.726Z,2.10
2017-12-14T18:58:46.237Z,1.90
2017-12-14T19:01:13.733Z,2.00
2017-12-14T19:03:41.229Z,1.67
2017-12-14T19:06:10.686Z,2.30
2017-12-14T19:08:38.181Z,1.97
2017-12-14T19:11:06.466Z,1.90
2017-12-14T19:13:34.938Z,1.90
2017-12-14T19:16:03.201Z,2.10
2017-12-14T19:18:31.485Z,1.33
2017-12-14T19:20:59.750Z,1.93
2017-12-14T19:23:27.284Z,1.80
2017-12-14T19:25:54.794Z,2.00
2017-12-14T19:28:22.281Z,1.90
2017-12-14T19:30:49.792Z,1.70
2017-12-14T19:33:18.053Z,1.93
2017-12-14T19:35:46.316Z,2.10
2017-12-14T19:38:14.610Z,1.83
2017-12-14T19:40:42.882Z,1.80
2017-12-14T19:43:11.132Z,2.03
2017-12-14T19:45:38.646Z,2.07
2017-12-14T19:48:06.140Z,2.43
2017-12-14T19:50:33.641Z,2.60
2017-12-14T19:53:01.640Z,2.33
2017-12-14T19:55:30.415Z,2.00
2017-12-14T19:57:59.510Z,2.40
2017-12-14T20:00:27.580Z,2.33
2017-12-14T20:02:55.571Z,2.00
2017-12-14T20:05:23.440Z,1.93
2017-12-14T20:07:52.203Z,1.97
2017-12-14T20:10:21.601Z,1.77
2017-12-14T20:12:49.876Z,2.17
2017-12-14T20:15:17.742Z,1.90
2017-12-14T20:17:45.403Z,1.70
2017-12-14T20:20:13.325Z,1.87
2017-12-14T20:22:42.272Z,2.87
2017-12-14T20:25:10.227Z,2.17
2017-12-14T20:27:38.298Z,1.83
2017-12-14T20:30:06.289Z,7.07
2017-12-14T20:32:35.690Z,3.70
2017-12-14T20:35:03.233Z,2.90
2017-12-14T20:37:31.684Z,2.93
2017-12-14T20:39:59.955Z,3.20
2017-12-14T20:42:28.237Z,3.00
2017-12-14T20:44:55.728Z,2.93
2017-12-14T20:47:23.277Z,4.00
2017-12-14T20:49:50.802Z,3.17
2017-12-14T20:52:18.325Z,3.20
2017-12-14T20:54:46.039Z,4.00
2017-12-14T20:57:13.562Z,3.40
2017-12-14T20:59:41.846Z,3.67
2017-12-14T21:02:10.103Z,3.00
2017-12-14T21:04:38.390Z,2.77
2017-12-14T21:07:06.660Z,3.10
2017-12-14T21:09:35.113Z,2.90
2017-12-14T21:12:02.635Z,3.00
2017-12-14T21:14:30.153Z,3.30
2017-12-14T21:16:58.418Z,3.30
2017-12-14T21:19:25.910Z,3.00
2017-12-14T21:21:53.434Z,3.07
2017-12-14T21:24:22.438Z,3.03
2017-12-14T21:26:50.717Z,2.80
2017-12-14T21:29:18.997Z,3.07
2017-12-14T21:31:47.262Z,2.90
2017-12-14T21:34:15.678Z,3.10
2017-12-14T21:36:43.315Z,2.40
2017-12-14T21:39:10.834Z,2.30
2017-12-14T21:41:39.134Z,2.37
2017-12-14T21:44:07.418Z,2.90
2017-12-14T21:46:35.926Z,3.00
2017-12-14T21:49:03.485Z,2.63
2017-12-14T21:51:31.555Z,2.13
2017-12-14T21:53:59.120Z,3.10
2017-12-14T21:56:26.609Z,2.93
2017-12-14T21:58:54.433Z,2.70
2017-12-14T22:01:23.322Z,3.17
2017-12-14T22:03:51.087Z,3.07
2017-12-14T22:06:19.842Z,3.37
2017-12-14T22:08:48.353Z,2.63
2017-12-14T22:11:15.991Z,2.50
2017-12-14T22:13:44.248Z,2.80
2017-12-14T22:16:12.793Z,3.47
2017-12-14T22:18:41.248Z,2.50
2017-12-14T22:21:09.112Z,2.80
2017-12-14T22:23:36.897Z,3.40
2017-12-14T22:26:04.449Z,2.67
2017-12-14T22:28:32.006Z,2.83
2017-12-14T22:31:00.470Z,3.20
2017-12-14T22:33:27.997Z,2.50
2017-12-14T22:35:56.266Z,2.60
2017-12-14T22:38:24.554Z,2.60
2017-12-14T22:40:52.818Z,2.47
2017-12-14T22:43:21.093Z,2.33
2017-12-14T22:45:49.366Z,2.30
2017-12-14T22:48:17.644Z,2.73
2017-12-14T22:50:45.921Z,2.90
2017-12-14T22:53:14.186Z,2.80
2017-12-14T22:55:42.450Z,2.60
2017-12-14T22:58:09.965Z,2.40
2017-12-14T23:00:37.453Z,2.40
2017-12-14T23:03:04.972Z,2.40
2017-12-14T23:05:32.489Z,2.70
2017-12-14T23:08:00.770Z,2.50
2017-12-14T23:10:29.058Z,2.93
2017-12-14T23:12:56.553Z,2.63
2017-12-14T23:15:26.026Z,2.60
2017-12-14T23:17:53.525Z,2.30
2017-12-14T23:20:21.038Z,3.03
2017-12-14T23:22:48.557Z,2.30
2017-12-14T23:25:16.054Z,2.57
2017-12-14T23:27:43.541Z,2.47
2017-12-14T23:30:11.061Z,2.83
2017-12-14T23:32:38.554Z,2.50
2017-12-14T23:35:06.095Z,2.40
2017-12-14T23:37:33.616Z,2.30
2017-12-14T23:40:01.878Z,2.00
2017-12-14T23:42:30.161Z,2.00
2017-12-14T23:44:58.426Z,2.50
2017-12-14T23:47:27.498Z,2.17
2017-12-14T23:49:54.989Z,2.57
2017-12-14T23:52:23.249Z,2.23
2017-12-14T23:54:50.774Z,2.40
2017-12-14T23:57:18.271Z,2.33
2017-12-14T23:59:46.531Z,2.30
